« 定点 富山空港 2017/12/14 thu | トップページ | 出立 中部国際空港 2017/12/8 fri »

2017/12/15

美ら島エアーフェスタ2017【初日1】 那覇空港 2017/12/9 sat

開場時間10時と言う、優雅な航空祭は那覇だけ。軽く朝食を摂って、今年もタンク山からスタート。もう列に長々と並んで入るのも面倒なので、開門過ぎに入場へ。

ROAH 090000Z 05008KT 9999 FEW040 BKN060 17/09 Q1020 RMK 1SC040 7SC060 A3013

20171209_roah_100ja807p

APJ921 ROAH-RCTP JA807P A320-214

ROAH 090030Z 04011KT 9999 FEW040 BKN060 18/09 Q1020 RMK 1SC040 7SC060 A3012

20171209_roah_101b50001

TTW231 ROAH-RCTP B-50001 A320-232

20171209_roah_102ja737y

SKY510 ROAH-RJTT JA737Y B737-8FZ

20171209_roah_103jg52973

おや陸自さんのチヌークが離陸・・ お隣の那覇駐屯地行きのようですが、一部アップウインドに入って・・

20171209_roah_104jg52973

JG52970 CH-47JA XV C970

ぐるっと東側を一周してアプローチです。

20171209_roah_105hl8232

ESR634 ROAH-RKSI HL8232 B737-8K5

20171209_roah_106ja83rc

RAC861 ROAH-ROMD JA83RC DHC8-402EC

ROAH 090100Z 04013KT 9999 FEW040 BKN060 18/09 Q1019 RMK 1SC040 7SC060 A3011

20171209_roah_107airfes

さて10時になったので、正門前へ

20171209_roah_108chandora

今年も、チョンダラーがお出迎え

20171209_roah_109ja8992

対岸には、全日空系のMROの格納庫建設が佳境

ROAH 090130Z 04012KT CAVOK 18/09 Q1019 RMK A3011

20171209_roah_110f428837

42-8837 F-15J 204SQ L26

今年も早々にプログラムに無いフライトが始まりました。

20171209_roah_111f428833

42-8833 F-15J 204SQ L29

20171209_roah_112f328827

32-8827 F-15J 204SQ L30

ここで気がつきましたか? 204SQのフライトながら、大挙青龍機がお勤め。

20171209_roah_113ja73nn

SKY554 ROAH-RJGG JA73NN B737-81D

20171209_roah_114f728962

72-8962 F-15J 204SQ

コクピット公開はF15x2 T4x2 で、どちらも大盛況

20171209_roah_115ja743a

ANA763 RJOO-ROAH JA743A B777-281ER

20171209_roah_116e343460

34-3460 E-2C 603SQ A31

こちらも、プログラムに無いフライトの準備

20171209_roah_117jmf

会場の人気を一手に持っていく、海自サンタさんは今年も健在

20171209_roah_118e343460

エンジンスタートしました。

20171209_roah_119ja8992

JA8992 JTA B737-846

今年の民航機展示はトランスオーシャン

20171209_roah_120ja8992

もう、見つめちゃイヤッ

20171209_roah_121k873601

87-3601 KC-767J 404SQ

20171209_roah_122c581011

58-1011 C-1 403SQ

20171209_roah_123e343460

誘導路を急ぎます

ANA ROAH- JA05AN B737-781

20171209_roah_124t365702

36-5702 T-4 204SQ

20171209_roah_125t965772

95-5772 T-4 204SQ

ROAH 090200Z 05011KT CAVOK 18/09 Q1019 RMK A3009

20171209_roah_126t165800

16-5800 T-4 304SQ

20171209_roah_127e343460

いってらっしゃい

20171209_roah_128f128924_2

会場南側にF-15列線

20171209_roah_129f128924

12-8924 F-15J 204SQ

20171209_roah_130f828902

82-8902 F-15J 204SQ

20171209_roah_131f428947

42-8947 F-15J 304SQ

20171209_roah_132f428947

今年の唯一記念塗装機 大天狗

20171209_roah_133f228931

そんな中でも、次のアラート機が出撃です。

20171209_roah_134f428947

天狗ってもともとは、流星のことらしい

20171209_roah_135f828092

82-8092 F-15DJ 304SQ

20171209_roah_136f828092

大天狗の前の機体がドナドナされて

20171209_roah_137f228931

22-8931 F-15J 204SQ L31

20171209_roah_138f328916

32-8916 F-15J 204SQ L32

小松航空祭みたい・・

20171209_roah_139f428947

大天狗が横からも綺麗に見えるようになりました。

20171209_roah_140f428947

でも、反対側は拝めません

20171209_roah_141f328943

32-8943 F-15J 204SQ

20171209_roah_142f528957

南側のエプロンでは、またしても次のアラート機

20171209_roah_143f228930

間髪おかず出撃です。

20171209_roah_144u823009

82-3009 U-125A NAHA-ARS

20171209_roah_145h084591

08-4591 UH-60J NAHA-ARS

今年後半の航空祭では、救難隊は浜松での件により、展示自粛中。全ての乗員が発見できずに捜索終了となり、残念です。

20171209_roah_146f128925

12-8925 F-15J 204SQ

こちらはF-15と綱引きコーナー

20171209_roah_147fvc

消防小隊の展示も賑わっています。

20171209_roah_148fire

ちびっ子消防士が放水!

20171209_roah_149ht

なにかやってくれるヘルコプター輸送隊 

20171209_roah_150h574492

57-4492 CH-47J(LR) NAHA-HT

20171209_roah_151jg43116

動かないマネキン

20171209_roah_152jg43116

JG43116 UH-60JA XV

20171209_roah_153u753251

75-3251 U-4 402SQ

20171209_roah_154t965772

T-4の機動飛行が始まります。こちらはプログラム。

20171209_roah_155ja720a

JA720A DHC8-315 JCG

20171209_roah_156u393042

39-3042 U-125 FCS

20171209_roah_157f938547

93-8547 F-2A 6SQ

ROAH 090230Z 03014KT 350V050 CAVOK 19/09 Q1018 RMK A3008

20171209_roah_158t965777

96-5777 T-4 FTW13

20171209_roah_159t965777

20171209_roah_160t965777

ラッキーなななのレッドドルフィン

20171209_roah_161t065784

06-5784 T-4 SWAF 格納庫内で鎮座

20171209_roah_162funkey

ステージ上では、姦しいピエロのファンキーさんが大人気

その2につづく・・・

|

« 定点 富山空港 2017/12/14 thu | トップページ | 出立 中部国際空港 2017/12/8 fri »

那覇空港」カテゴリの記事

コメント

コメントを書く



(ウェブ上には掲載しません)


コメントは記事投稿者が公開するまで表示されません。



トラックバック


この記事へのトラックバック一覧です: 美ら島エアーフェスタ2017【初日1】 那覇空港 2017/12/9 sat:

« 定点 富山空港 2017/12/14 thu | トップページ | 出立 中部国際空港 2017/12/8 fri »